sensor_id;sensor_type;location;lat;lon;timestamp;P1;durP1;ratioP1;P2;durP2;ratioP2
48805;SDS011;34625;47.176;27.548;2023-05-07T00:01:48;1.42;;;1.25;;
48805;SDS011;34625;47.176;27.548;2023-05-07T00:04:14;4.05;;;1.10;;
48805;SDS011;34625;47.176;27.548;2023-05-07T00:06:40;1.48;;;1.10;;
48805;SDS011;34625;47.176;27.548;2023-05-07T00:09:06;1.02;;;0.93;;
48805;SDS011;34625;47.176;27.548;2023-05-07T00:11:32;1.60;;;1.23;;
48805;SDS011;34625;47.176;27.548;2023-05-07T00:13:59;3.75;;;1.25;;
48805;SDS011;34625;47.176;27.548;2023-05-07T00:16:25;2.15;;;1.02;;
48805;SDS011;34625;47.176;27.548;2023-05-07T00:18:51;0.85;;;0.75;;
48805;SDS011;34625;47.176;27.548;2023-05-07T00:21:18;4.20;;;1.00;;
48805;SDS011;34625;47.176;27.548;2023-05-07T00:23:44;2.92;;;1.20;;
48805;SDS011;34625;47.176;27.548;2023-05-07T00:26:09;2.75;;;1.17;;
48805;SDS011;34625;47.176;27.548;2023-05-07T00:28:36;1.38;;;0.93;;
48805;SDS011;34625;47.176;27.548;2023-05-07T00:31:02;0.88;;;0.80;;
48805;SDS011;34625;47.176;27.548;2023-05-07T00:33:28;3.70;;;1.05;;
48805;SDS011;34625;47.176;27.548;2023-05-07T00:35:54;5.53;;;1.40;;
48805;SDS011;34625;47.176;27.548;2023-05-07T00:38:20;3.97;;;1.17;;
48805;SDS011;34625;47.176;27.548;2023-05-07T00:40:46;4.05;;;1.27;;
48805;SDS011;34625;47.176;27.548;2023-05-07T00:43:12;1.38;;;1.20;;
48805;SDS011;34625;47.176;27.548;2023-05-07T00:45:38;1.23;;;1.08;;
48805;SDS011;34625;47.176;27.548;2023-05-07T00:48:04;1.55;;;1.30;;
48805;SDS011;34625;47.176;27.548;2023-05-07T00:50:31;2.05;;;1.10;;
48805;SDS011;34625;47.176;27.548;2023-05-07T00:52:58;2.28;;;1.33;;
48805;SDS011;34625;47.176;27.548;2023-05-07T00:55:25;4.22;;;1.02;;
48805;SDS011;34625;47.176;27.548;2023-05-07T00:57:51;1.60;;;1.10;;
48805;SDS011;34625;47.176;27.548;2023-05-07T01:00:18;1.13;;;1.02;;
48805;SDS011;34625;47.176;27.548;2023-05-07T01:02:45;2.78;;;1.25;;
48805;SDS011;34625;47.176;27.548;2023-05-07T01:05:12;2.42;;;0.90;;
48805;SDS011;34625;47.176;27.548;2023-05-07T01:07:40;1.85;;;0.90;;
48805;SDS011;34625;47.176;27.548;2023-05-07T01:10:08;2.75;;;0.90;;
48805;SDS011;34625;47.176;27.548;2023-05-07T01:12:36;1.45;;;1.10;;
48805;SDS011;34625;47.176;27.548;2023-05-07T01:15:03;1.15;;;1.05;;
48805;SDS011;34625;47.176;27.548;2023-05-07T01:17:37;1.05;;;0.85;;
48805;SDS011;34625;47.176;27.548;2023-05-07T01:20:08;1.17;;;0.98;;
48805;SDS011;34625;47.176;27.548;2023-05-07T01:22:40;1.48;;;1.20;;
48805;SDS011;34625;47.176;27.548;2023-05-07T01:25:07;1.15;;;1.08;;
48805;SDS011;34625;47.176;27.548;2023-05-07T01:27:35;2.70;;;1.02;;
48805;SDS011;34625;47.176;27.548;2023-05-07T01:30:03;4.88;;;1.08;;
48805;SDS011;34625;47.176;27.548;2023-05-07T01:32:36;1.27;;;1.13;;
48805;SDS011;34625;47.176;27.548;2023-05-07T01:35:07;2.15;;;1.15;;
48805;SDS011;34625;47.176;27.548;2023-05-07T01:37:36;4.85;;;1.08;;
48805;SDS011;34625;47.176;27.548;2023-05-07T01:40:03;1.73;;;1.50;;
48805;SDS011;34625;47.176;27.548;2023-05-07T01:42:30;2.75;;;1.00;;
48805;SDS011;34625;47.176;27.548;2023-05-07T01:44:57;1.10;;;1.00;;
48805;SDS011;34625;47.176;27.548;2023-05-07T01:47:23;0.77;;;0.77;;
48805;SDS011;34625;47.176;27.548;2023-05-07T01:49:50;3.28;;;1.33;;
48805;SDS011;34625;47.176;27.548;2023-05-07T01:52:17;2.97;;;1.10;;
48805;SDS011;34625;47.176;27.548;2023-05-07T01:54:43;1.38;;;0.98;;
48805;SDS011;34625;47.176;27.548;2023-05-07T01:57:09;1.45;;;1.00;;
48805;SDS011;34625;47.176;27.548;2023-05-07T01:59:35;2.55;;;1.05;;
48805;SDS011;34625;47.176;27.548;2023-05-07T02:02:01;4.32;;;1.08;;
48805;SDS011;34625;47.176;27.548;2023-05-07T02:04:28;0.90;;;0.90;;
48805;SDS011;34625;47.176;27.548;2023-05-07T02:06:54;1.98;;;0.90;;
48805;SDS011;34625;47.176;27.548;2023-05-07T02:09:21;1.85;;;1.08;;
48805;SDS011;34625;47.176;27.548;2023-05-07T02:11:49;1.20;;;1.10;;
48805;SDS011;34625;47.176;27.548;2023-05-07T02:14:16;2.08;;;1.13;;
48805;SDS011;34625;47.176;27.548;2023-05-07T02:16:43;2.97;;;0.88;;
48805;SDS011;34625;47.176;27.548;2023-05-07T02:19:11;2.13;;;1.00;;
48805;SDS011;34625;47.176;27.548;2023-05-07T02:21:37;1.40;;;1.20;;
48805;SDS011;34625;47.176;27.548;2023-05-07T02:24:03;6.93;;;1.27;;
48805;SDS011;34625;47.176;27.548;2023-05-07T02:26:29;2.63;;;1.27;;
48805;SDS011;34625;47.176;27.548;2023-05-07T02:28:56;0.98;;;0.88;;
48805;SDS011;34625;47.176;27.548;2023-05-07T02:31:21;1.80;;;1.27;;
48805;SDS011;34625;47.176;27.548;2023-05-07T02:33:48;1.10;;;0.90;;
48805;SDS011;34625;47.176;27.548;2023-05-07T02:36:14;1.48;;;1.13;;
48805;SDS011;34625;47.176;27.548;2023-05-07T02:38:47;1.20;;;0.98;;
48805;SDS011;34625;47.176;27.548;2023-05-07T02:41:13;2.40;;;0.88;;
48805;SDS011;34625;47.176;27.548;2023-05-07T02:43:39;1.27;;;1.00;;
48805;SDS011;34625;47.176;27.548;2023-05-07T02:46:06;4.07;;;0.95;;
48805;SDS011;34625;47.176;27.548;2023-05-07T02:48:36;1.77;;;1.08;;
48805;SDS011;34625;47.176;27.548;2023-05-07T02:51:03;2.75;;;1.08;;
48805;SDS011;34625;47.176;27.548;2023-05-07T02:53:31;3.30;;;1.30;;
48805;SDS011;34625;47.176;27.548;2023-05-07T02:55:58;1.83;;;1.38;;
48805;SDS011;34625;47.176;27.548;2023-05-07T02:58:25;5.22;;;1.38;;
48805;SDS011;34625;47.176;27.548;2023-05-07T03:00:52;4.00;;;1.20;;
48805;SDS011;34625;47.176;27.548;2023-05-07T03:03:40;1.67;;;1.20;;
48805;SDS011;34625;47.176;27.548;2023-05-07T03:06:06;0.93;;;0.77;;
48805;SDS011;34625;47.176;27.548;2023-05-07T03:08:32;1.75;;;1.05;;
48805;SDS011;34625;47.176;27.548;2023-05-07T03:10:58;2.03;;;1.02;;
48805;SDS011;34625;47.176;27.548;2023-05-07T03:13:24;0.85;;;0.80;;
48805;SDS011;34625;47.176;27.548;2023-05-07T03:15:51;2.67;;;1.30;;
48805;SDS011;34625;47.176;27.548;2023-05-07T03:18:17;1.60;;;1.15;;
48805;SDS011;34625;47.176;27.548;2023-05-07T03:20:43;2.50;;;1.10;;
48805;SDS011;34625;47.176;27.548;2023-05-07T03:23:09;1.42;;;1.30;;
48805;SDS011;34625;47.176;27.548;2023-05-07T03:25:35;3.88;;;1.27;;
48805;SDS011;34625;47.176;27.548;2023-05-07T03:28:02;2.53;;;1.15;;
48805;SDS011;34625;47.176;27.548;2023-05-07T03:30:37;0.95;;;0.90;;
48805;SDS011;34625;47.176;27.548;2023-05-07T03:33:03;1.00;;;1.00;;
48805;SDS011;34625;47.176;27.548;2023-05-07T03:35:29;1.02;;;0.90;;
48805;SDS011;34625;47.176;27.548;2023-05-07T03:37:56;1.20;;;1.10;;
48805;SDS011;34625;47.176;27.548;2023-05-07T03:40:22;0.90;;;0.90;;
48805;SDS011;34625;47.176;27.548;2023-05-07T03:42:52;1.33;;;1.10;;
48805;SDS011;34625;47.176;27.548;2023-05-07T03:45:21;2.35;;;1.00;;
48805;SDS011;34625;47.176;27.548;2023-05-07T03:47:56;1.40;;;1.20;;
48805;SDS011;34625;47.176;27.548;2023-05-07T03:50:22;3.70;;;1.15;;
48805;SDS011;34625;47.176;27.548;2023-05-07T03:52:48;1.50;;;1.10;;
48805;SDS011;34625;47.176;27.548;2023-05-07T03:55:18;1.52;;;1.25;;
48805;SDS011;34625;47.176;27.548;2023-05-07T03:57:49;1.23;;;1.10;;
48805;SDS011;34625;47.176;27.548;2023-05-07T04:00:15;1.38;;;1.00;;
48805;SDS011;34625;47.176;27.548;2023-05-07T04:02:48;1.73;;;1.17;;
48805;SDS011;34625;47.176;27.548;2023-05-07T04:05:18;4.13;;;1.35;;
48805;SDS011;34625;47.176;27.548;2023-05-07T04:07:48;1.30;;;1.20;;
48805;SDS011;34625;47.176;27.548;2023-05-07T04:10:18;1.00;;;1.00;;
48805;SDS011;34625;47.176;27.548;2023-05-07T04:12:47;1.20;;;1.10;;
48805;SDS011;34625;47.176;27.548;2023-05-07T04:15:17;1.35;;;1.25;;
48805;SDS011;34625;47.176;27.548;2023-05-07T04:17:44;3.92;;;1.30;;
48805;SDS011;34625;47.176;27.548;2023-05-07T04:20:14;2.13;;;1.42;;
48805;SDS011;34625;47.176;27.548;2023-05-07T04:22:42;5.13;;;1.30;;
48805;SDS011;34625;47.176;27.548;2023-05-07T04:25:08;4.38;;;1.27;;
48805;SDS011;34625;47.176;27.548;2023-05-07T04:27:35;3.25;;;1.45;;
48805;SDS011;34625;47.176;27.548;2023-05-07T04:30:03;1.35;;;1.20;;
48805;SDS011;34625;47.176;27.548;2023-05-07T04:32:34;1.60;;;1.50;;
48805;SDS011;34625;47.176;27.548;2023-05-07T04:35:01;1.55;;;1.13;;
48805;SDS011;34625;47.176;27.548;2023-05-07T04:37:28;2.03;;;1.38;;
48805;SDS011;34625;47.176;27.548;2023-05-07T04:39:54;1.92;;;1.20;;
48805;SDS011;34625;47.176;27.548;2023-05-07T04:42:21;2.35;;;1.20;;
48805;SDS011;34625;47.176;27.548;2023-05-07T04:44:52;3.67;;;1.30;;
48805;SDS011;34625;47.176;27.548;2023-05-07T04:47:19;3.83;;;1.63;;
48805;SDS011;34625;47.176;27.548;2023-05-07T04:49:46;2.78;;;1.50;;
48805;SDS011;34625;47.176;27.548;2023-05-07T04:52:12;1.65;;;1.20;;
48805;SDS011;34625;47.176;27.548;2023-05-07T04:54:38;5.15;;;1.80;;
48805;SDS011;34625;47.176;27.548;2023-05-07T04:57:05;1.83;;;1.40;;
48805;SDS011;34625;47.176;27.548;2023-05-07T04:59:32;1.85;;;1.10;;
48805;SDS011;34625;47.176;27.548;2023-05-07T05:01:58;1.73;;;1.27;;
48805;SDS011;34625;47.176;27.548;2023-05-07T05:04:25;1.83;;;0.98;;
48805;SDS011;34625;47.176;27.548;2023-05-07T05:06:51;2.58;;;1.20;;
48805;SDS011;34625;47.176;27.548;2023-05-07T05:09:17;1.75;;;1.33;;
48805;SDS011;34625;47.176;27.548;2023-05-07T05:11:44;5.63;;;1.27;;
48805;SDS011;34625;47.176;27.548;2023-05-07T05:14:10;3.15;;;1.50;;
48805;SDS011;34625;47.176;27.548;2023-05-07T05:16:36;4.97;;;1.20;;
48805;SDS011;34625;47.176;27.548;2023-05-07T05:19:02;3.13;;;1.23;;
48805;SDS011;34625;47.176;27.548;2023-05-07T05:21:30;3.53;;;1.50;;
48805;SDS011;34625;47.176;27.548;2023-05-07T05:24:02;3.15;;;1.42;;
48805;SDS011;34625;47.176;27.548;2023-05-07T05:26:28;3.90;;;1.38;;
48805;SDS011;34625;47.176;27.548;2023-05-07T05:28:55;2.38;;;1.35;;
48805;SDS011;34625;47.176;27.548;2023-05-07T05:31:23;1.40;;;1.27;;
48805;SDS011;34625;47.176;27.548;2023-05-07T05:33:50;1.90;;;1.08;;
48805;SDS011;34625;47.176;27.548;2023-05-07T05:36:16;2.95;;;1.65;;
48805;SDS011;34625;47.176;27.548;2023-05-07T05:38:44;4.13;;;1.00;;
48805;SDS011;34625;47.176;27.548;2023-05-07T05:41:11;1.08;;;0.98;;
48805;SDS011;34625;47.176;27.548;2023-05-07T05:43:37;2.78;;;1.02;;
48805;SDS011;34625;47.176;27.548;2023-05-07T05:46:03;1.33;;;1.20;;
48805;SDS011;34625;47.176;27.548;2023-05-07T05:48:30;0.98;;;0.98;;
48805;SDS011;34625;47.176;27.548;2023-05-07T05:50:57;1.58;;;1.25;;
48805;SDS011;34625;47.176;27.548;2023-05-07T05:53:23;1.70;;;1.30;;
48805;SDS011;34625;47.176;27.548;2023-05-07T05:55:49;1.73;;;1.55;;
48805;SDS011;34625;47.176;27.548;2023-05-07T05:58:17;3.25;;;0.95;;
48805;SDS011;34625;47.176;27.548;2023-05-07T06:00:50;1.73;;;0.90;;
48805;SDS011;34625;47.176;27.548;2023-05-07T06:03:18;3.58;;;1.10;;
48805;SDS011;34625;47.176;27.548;2023-05-07T06:05:44;2.55;;;1.40;;
48805;SDS011;34625;47.176;27.548;2023-05-07T06:08:11;2.10;;;1.08;;
48805;SDS011;34625;47.176;27.548;2023-05-07T06:10:37;1.50;;;1.40;;
48805;SDS011;34625;47.176;27.548;2023-05-07T06:13:05;1.50;;;1.00;;
48805;SDS011;34625;47.176;27.548;2023-05-07T06:15:32;1.83;;;1.13;;
48805;SDS011;34625;47.176;27.548;2023-05-07T06:18:04;4.57;;;1.85;;
48805;SDS011;34625;47.176;27.548;2023-05-07T06:20:30;3.85;;;2.08;;
48805;SDS011;34625;47.176;27.548;2023-05-07T06:22:58;2.00;;;1.55;;
48805;SDS011;34625;47.176;27.548;2023-05-07T06:25:24;5.75;;;2.80;;
48805;SDS011;34625;47.176;27.548;2023-05-07T06:27:50;8.43;;;2.40;;
48805;SDS011;34625;47.176;27.548;2023-05-07T06:30:16;4.32;;;2.75;;
48805;SDS011;34625;47.176;27.548;2023-05-07T06:32:42;4.25;;;1.95;;
48805;SDS011;34625;47.176;27.548;2023-05-07T06:35:10;2.60;;;1.80;;
48805;SDS011;34625;47.176;27.548;2023-05-07T06:37:37;4.03;;;1.75;;
48805;SDS011;34625;47.176;27.548;2023-05-07T06:40:06;4.25;;;1.48;;
48805;SDS011;34625;47.176;27.548;2023-05-07T06:42:37;5.30;;;1.88;;
48805;SDS011;34625;47.176;27.548;2023-05-07T06:45:21;2.47;;;1.55;;
48805;SDS011;34625;47.176;27.548;2023-05-07T06:47:47;4.68;;;1.40;;
48805;SDS011;34625;47.176;27.548;2023-05-07T06:50:13;1.95;;;1.30;;
48805;SDS011;34625;47.176;27.548;2023-05-07T06:52:43;1.45;;;1.30;;
48805;SDS011;34625;47.176;27.548;2023-05-07T06:55:09;2.55;;;1.88;;
48805;SDS011;34625;47.176;27.548;2023-05-07T06:57:36;5.28;;;1.60;;
48805;SDS011;34625;47.176;27.548;2023-05-07T07:00:03;1.83;;;1.48;;
48805;SDS011;34625;47.176;27.548;2023-05-07T07:02:39;2.05;;;1.85;;
48805;SDS011;34625;47.176;27.548;2023-05-07T07:05:05;1.42;;;1.23;;
48805;SDS011;34625;47.176;27.548;2023-05-07T07:07:32;5.85;;;1.88;;
48805;SDS011;34625;47.176;27.548;2023-05-07T07:09:58;5.60;;;1.67;;
48805;SDS011;34625;47.176;27.548;2023-05-07T07:12:25;3.95;;;1.45;;
48805;SDS011;34625;47.176;27.548;2023-05-07T07:14:51;1.88;;;1.10;;
48805;SDS011;34625;47.176;27.548;2023-05-07T07:17:18;2.60;;;2.00;;
48805;SDS011;34625;47.176;27.548;2023-05-07T07:19:44;1.40;;;1.30;;
48805;SDS011;34625;47.176;27.548;2023-05-07T07:22:10;2.42;;;0.95;;
48805;SDS011;34625;47.176;27.548;2023-05-07T07:24:39;4.65;;;2.08;;
48805;SDS011;34625;47.176;27.548;2023-05-07T07:27:07;4.22;;;1.58;;
48805;SDS011;34625;47.176;27.548;2023-05-07T07:29:34;2.70;;;1.60;;
48805;SDS011;34625;47.176;27.548;2023-05-07T07:32:00;15.10;;;1.00;;
48805;SDS011;34625;47.176;27.548;2023-05-07T07:34:26;1.17;;;1.08;;
48805;SDS011;34625;47.176;27.548;2023-05-07T07:36:53;4.38;;;1.33;;
48805;SDS011;34625;47.176;27.548;2023-05-07T07:39:19;0.40;;;0.40;;
48805;SDS011;34625;47.176;27.548;2023-05-07T07:41:48;1.10;;;1.00;;
48805;SDS011;34625;47.176;27.548;2023-05-07T07:44:15;9.40;;;1.05;;
48805;SDS011;34625;47.176;27.548;2023-05-07T07:46:41;1.40;;;1.30;;
48805;SDS011;34625;47.176;27.548;2023-05-07T07:49:07;0.85;;;0.75;;
48805;SDS011;34625;47.176;27.548;2023-05-07T07:51:34;0.50;;;0.50;;
48805;SDS011;34625;47.176;27.548;2023-05-07T07:54:00;0.50;;;0.50;;
48805;SDS011;34625;47.176;27.548;2023-05-07T07:56:31;0.32;;;0.32;;
48805;SDS011;34625;47.176;27.548;2023-05-07T07:58:59;0.63;;;0.63;;
48805;SDS011;34625;47.176;27.548;2023-05-07T08:01:25;2.80;;;1.00;;
48805;SDS011;34625;47.176;27.548;2023-05-07T08:03:52;2.40;;;1.40;;
48805;SDS011;34625;47.176;27.548;2023-05-07T08:06:18;4.22;;;2.13;;
48805;SDS011;34625;47.176;27.548;2023-05-07T08:08:44;8.02;;;1.80;;
48805;SDS011;34625;47.176;27.548;2023-05-07T08:11:10;2.25;;;1.33;;
48805;SDS011;34625;47.176;27.548;2023-05-07T08:13:37;3.13;;;1.88;;
48805;SDS011;34625;47.176;27.548;2023-05-07T08:16:05;3.63;;;1.88;;
48805;SDS011;34625;47.176;27.548;2023-05-07T08:18:32;2.85;;;1.85;;
48805;SDS011;34625;47.176;27.548;2023-05-07T08:21:00;4.13;;;1.45;;
48805;SDS011;34625;47.176;27.548;2023-05-07T08:23:27;4.50;;;1.65;;
48805;SDS011;34625;47.176;27.548;2023-05-07T08:25:53;4.15;;;1.67;;
48805;SDS011;34625;47.176;27.548;2023-05-07T08:28:19;2.13;;;1.10;;
48805;SDS011;34625;47.176;27.548;2023-05-07T08:30:47;2.85;;;1.75;;
48805;SDS011;34625;47.176;27.548;2023-05-07T08:33:13;2.25;;;1.60;;
48805;SDS011;34625;47.176;27.548;2023-05-07T08:35:39;1.30;;;1.23;;
48805;SDS011;34625;47.176;27.548;2023-05-07T08:38:07;4.32;;;2.03;;
48805;SDS011;34625;47.176;27.548;2023-05-07T08:40:37;1.67;;;1.45;;
48805;SDS011;34625;47.176;27.548;2023-05-07T08:43:07;2.58;;;1.70;;
48805;SDS011;34625;47.176;27.548;2023-05-07T08:45:36;1.35;;;1.13;;
48805;SDS011;34625;47.176;27.548;2023-05-07T08:48:14;6.85;;;1.55;;
48805;SDS011;34625;47.176;27.548;2023-05-07T08:50:44;4.78;;;1.27;;
48805;SDS011;34625;47.176;27.548;2023-05-07T08:53:10;1.30;;;1.20;;
48805;SDS011;34625;47.176;27.548;2023-05-07T08:55:38;2.28;;;1.63;;
48805;SDS011;34625;47.176;27.548;2023-05-07T08:58:05;1.60;;;1.50;;
48805;SDS011;34625;47.176;27.548;2023-05-07T09:00:35;2.00;;;1.42;;
48805;SDS011;34625;47.176;27.548;2023-05-07T09:03:02;2.63;;;1.52;;
48805;SDS011;34625;47.176;27.548;2023-05-07T09:05:28;3.15;;;1.85;;
48805;SDS011;34625;47.176;27.548;2023-05-07T09:07:54;1.10;;;1.10;;
48805;SDS011;34625;47.176;27.548;2023-05-07T09:10:22;1.98;;;1.70;;
48805;SDS011;34625;47.176;27.548;2023-05-07T09:12:49;4.70;;;1.60;;
48805;SDS011;34625;47.176;27.548;2023-05-07T09:15:17;2.97;;;1.63;;
48805;SDS011;34625;47.176;27.548;2023-05-07T09:17:44;3.83;;;1.92;;
48805;SDS011;34625;47.176;27.548;2023-05-07T09:20:10;3.58;;;1.55;;
48805;SDS011;34625;47.176;27.548;2023-05-07T09:22:37;6.20;;;1.92;;
48805;SDS011;34625;47.176;27.548;2023-05-07T09:25:07;2.15;;;1.30;;
48805;SDS011;34625;47.176;27.548;2023-05-07T09:27:35;2.40;;;1.35;;
48805;SDS011;34625;47.176;27.548;2023-05-07T09:30:05;1.83;;;1.40;;
48805;SDS011;34625;47.176;27.548;2023-05-07T09:32:36;2.38;;;1.70;;
48805;SDS011;34625;47.176;27.548;2023-05-07T09:35:17;2.13;;;1.90;;
48805;SDS011;34625;47.176;27.548;2023-05-07T09:37:46;2.15;;;1.65;;
48805;SDS011;34625;47.176;27.548;2023-05-07T09:40:23;5.85;;;1.95;;
48805;SDS011;34625;47.176;27.548;2023-05-07T09:42:52;1.40;;;1.25;;
48805;SDS011;34625;47.176;27.548;2023-05-07T09:45:25;2.20;;;1.52;;
48805;SDS011;34625;47.176;27.548;2023-05-07T09:47:57;2.63;;;1.67;;
48805;SDS011;34625;47.176;27.548;2023-05-07T09:50:30;2.15;;;1.23;;
48805;SDS011;34625;47.176;27.548;2023-05-07T09:53:01;3.83;;;1.60;;
48805;SDS011;34625;47.176;27.548;2023-05-07T09:55:30;1.85;;;1.58;;
48805;SDS011;34625;47.176;27.548;2023-05-07T09:57:56;2.92;;;2.03;;
48805;SDS011;34625;47.176;27.548;2023-05-07T10:00:26;5.88;;;1.70;;
48805;SDS011;34625;47.176;27.548;2023-05-07T10:03:00;5.82;;;2.55;;
48805;SDS011;34625;47.176;27.548;2023-05-07T10:05:39;5.95;;;2.85;;
48805;SDS011;34625;47.176;27.548;2023-05-07T10:08:08;3.88;;;2.78;;
48805;SDS011;34625;47.176;27.548;2023-05-07T10:10:36;4.07;;;3.03;;
48805;SDS011;34625;47.176;27.548;2023-05-07T10:13:06;4.90;;;2.60;;
48805;SDS011;34625;47.176;27.548;2023-05-07T10:15:37;12.55;;;3.67;;
48805;SDS011;34625;47.176;27.548;2023-05-07T10:18:05;4.75;;;2.55;;
48805;SDS011;34625;47.176;27.548;2023-05-07T10:20:33;6.75;;;2.47;;
48805;SDS011;34625;47.176;27.548;2023-05-07T10:23:04;4.20;;;2.50;;
48805;SDS011;34625;47.176;27.548;2023-05-07T10:25:37;4.72;;;2.65;;
48805;SDS011;34625;47.176;27.548;2023-05-07T10:28:10;6.78;;;2.80;;
48805;SDS011;34625;47.176;27.548;2023-05-07T10:33:53;4.38;;;1.98;;
48805;SDS011;34625;47.176;27.548;2023-05-07T10:36:22;4.97;;;2.58;;
48805;SDS011;34625;47.176;27.548;2023-05-07T10:38:51;7.65;;;2.60;;
48805;SDS011;34625;47.176;27.548;2023-05-07T10:41:17;5.25;;;1.73;;
48805;SDS011;34625;47.176;27.548;2023-05-07T10:43:45;7.70;;;3.03;;
48805;SDS011;34625;47.176;27.548;2023-05-07T10:46:19;7.07;;;2.92;;
48805;SDS011;34625;47.176;27.548;2023-05-07T10:49:18;3.20;;;2.30;;
48805;SDS011;34625;47.176;27.548;2023-05-07T10:54:44;5.32;;;2.00;;
48805;SDS011;34625;47.176;27.548;2023-05-07T11:00:01;1.63;;;1.50;;
48805;SDS011;34625;47.176;27.548;2023-05-07T11:05:36;6.93;;;2.03;;
48805;SDS011;34625;47.176;27.548;2023-05-07T11:08:12;1.48;;;1.33;;
48805;SDS011;34625;47.176;27.548;2023-05-07T11:10:59;5.78;;;2.33;;
48805;SDS011;34625;47.176;27.548;2023-05-07T11:13:51;8.40;;;2.70;;
48805;SDS011;34625;47.176;27.548;2023-05-07T11:16:49;6.90;;;2.63;;
48805;SDS011;34625;47.176;27.548;2023-05-07T11:22:53;4.00;;;2.35;;
48805;SDS011;34625;47.176;27.548;2023-05-07T11:25:42;5.05;;;2.80;;
48805;SDS011;34625;47.176;27.548;2023-05-07T11:28:21;1.70;;;1.50;;
48805;SDS011;34625;47.176;27.548;2023-05-07T11:30:59;3.38;;;1.88;;
48805;SDS011;34625;47.176;27.548;2023-05-07T11:33:25;1.80;;;1.50;;
48805;SDS011;34625;47.176;27.548;2023-05-07T11:35:53;2.58;;;1.73;;
48805;SDS011;34625;47.176;27.548;2023-05-07T11:38:22;5.10;;;1.70;;
48805;SDS011;34625;47.176;27.548;2023-05-07T11:40:52;1.85;;;1.73;;
48805;SDS011;34625;47.176;27.548;2023-05-07T11:43:19;2.00;;;1.70;;
48805;SDS011;34625;47.176;27.548;2023-05-07T11:45:45;3.13;;;1.42;;
48805;SDS011;34625;47.176;27.548;2023-05-07T11:48:12;2.58;;;1.75;;
48805;SDS011;34625;47.176;27.548;2023-05-07T11:50:49;2.25;;;1.50;;
48805;SDS011;34625;47.176;27.548;2023-05-07T11:53:20;4.35;;;1.63;;
48805;SDS011;34625;47.176;27.548;2023-05-07T11:55:51;2.70;;;1.67;;
48805;SDS011;34625;47.176;27.548;2023-05-07T11:58:21;2.13;;;1.42;;
48805;SDS011;34625;47.176;27.548;2023-05-07T12:00:49;6.30;;;1.70;;
48805;SDS011;34625;47.176;27.548;2023-05-07T12:03:16;3.17;;;1.95;;
48805;SDS011;34625;47.176;27.548;2023-05-07T12:05:43;5.63;;;1.98;;
48805;SDS011;34625;47.176;27.548;2023-05-07T12:08:14;2.60;;;1.80;;
48805;SDS011;34625;47.176;27.548;2023-05-07T12:10:43;3.95;;;1.80;;
48805;SDS011;34625;47.176;27.548;2023-05-07T12:13:14;2.60;;;1.98;;
48805;SDS011;34625;47.176;27.548;2023-05-07T12:15:43;1.95;;;1.75;;
48805;SDS011;34625;47.176;27.548;2023-05-07T12:18:10;2.42;;;1.33;;
48805;SDS011;34625;47.176;27.548;2023-05-07T12:20:37;1.40;;;1.20;;
48805;SDS011;34625;47.176;27.548;2023-05-07T12:23:04;3.08;;;1.50;;
48805;SDS011;34625;47.176;27.548;2023-05-07T12:25:31;2.78;;;1.85;;
48805;SDS011;34625;47.176;27.548;2023-05-07T12:28:04;2.42;;;1.60;;
48805;SDS011;34625;47.176;27.548;2023-05-07T12:30:32;1.85;;;1.25;;
48805;SDS011;34625;47.176;27.548;2023-05-07T12:33:08;4.97;;;1.45;;
48805;SDS011;34625;47.176;27.548;2023-05-07T12:35:39;2.47;;;1.60;;
48805;SDS011;34625;47.176;27.548;2023-05-07T12:38:13;3.30;;;1.75;;
48805;SDS011;34625;47.176;27.548;2023-05-07T12:40:45;3.20;;;1.63;;
48805;SDS011;34625;47.176;27.548;2023-05-07T12:43:21;4.80;;;2.30;;
48805;SDS011;34625;47.176;27.548;2023-05-07T12:45:50;1.50;;;1.38;;
48805;SDS011;34625;47.176;27.548;2023-05-07T12:48:17;6.22;;;1.55;;
48805;SDS011;34625;47.176;27.548;2023-05-07T12:50:44;3.92;;;1.80;;
48805;SDS011;34625;47.176;27.548;2023-05-07T12:53:11;1.50;;;1.40;;
48805;SDS011;34625;47.176;27.548;2023-05-07T12:55:47;1.90;;;1.45;;
48805;SDS011;34625;47.176;27.548;2023-05-07T12:58:35;2.40;;;1.48;;
48805;SDS011;34625;47.176;27.548;2023-05-07T13:01:03;1.63;;;1.40;;
48805;SDS011;34625;47.176;27.548;2023-05-07T13:03:31;2.60;;;1.67;;
48805;SDS011;34625;47.176;27.548;2023-05-07T13:06:02;3.80;;;1.60;;
48805;SDS011;34625;47.176;27.548;2023-05-07T13:08:33;6.18;;;1.80;;
48805;SDS011;34625;47.176;27.548;2023-05-07T13:13:29;4.43;;;1.63;;
48805;SDS011;34625;47.176;27.548;2023-05-07T13:15:56;5.97;;;1.80;;
48805;SDS011;34625;47.176;27.548;2023-05-07T13:18:23;5.70;;;1.33;;
48805;SDS011;34625;47.176;27.548;2023-05-07T13:20:50;4.95;;;1.65;;
48805;SDS011;34625;47.176;27.548;2023-05-07T13:23:17;6.28;;;1.50;;
48805;SDS011;34625;47.176;27.548;2023-05-07T13:25:43;3.13;;;1.92;;
48805;SDS011;34625;47.176;27.548;2023-05-07T13:28:09;2.13;;;1.50;;
48805;SDS011;34625;47.176;27.548;2023-05-07T13:30:35;3.20;;;1.73;;
48805;SDS011;34625;47.176;27.548;2023-05-07T13:33:01;4.68;;;1.67;;
48805;SDS011;34625;47.176;27.548;2023-05-07T13:35:27;2.80;;;1.65;;
48805;SDS011;34625;47.176;27.548;2023-05-07T13:37:53;2.00;;;1.20;;
48805;SDS011;34625;47.176;27.548;2023-05-07T13:40:20;4.38;;;2.13;;
48805;SDS011;34625;47.176;27.548;2023-05-07T13:42:47;5.03;;;1.27;;
48805;SDS011;34625;47.176;27.548;2023-05-07T13:45:13;1.98;;;1.70;;
48805;SDS011;34625;47.176;27.548;2023-05-07T13:47:40;5.60;;;1.70;;
48805;SDS011;34625;47.176;27.548;2023-05-07T13:50:07;4.32;;;1.95;;
48805;SDS011;34625;47.176;27.548;2023-05-07T13:52:34;3.35;;;2.03;;
48805;SDS011;34625;47.176;27.548;2023-05-07T13:55:00;1.92;;;1.60;;
48805;SDS011;34625;47.176;27.548;2023-05-07T13:57:26;5.25;;;2.33;;
48805;SDS011;34625;47.176;27.548;2023-05-07T13:59:52;1.70;;;1.60;;
48805;SDS011;34625;47.176;27.548;2023-05-07T14:02:18;6.13;;;2.00;;
48805;SDS011;34625;47.176;27.548;2023-05-07T14:04:44;3.60;;;1.60;;
48805;SDS011;34625;47.176;27.548;2023-05-07T14:07:10;3.45;;;1.52;;
48805;SDS011;34625;47.176;27.548;2023-05-07T14:09:37;10.75;;;1.90;;
48805;SDS011;34625;47.176;27.548;2023-05-07T14:12:03;3.35;;;1.98;;
48805;SDS011;34625;47.176;27.548;2023-05-07T14:14:29;5.45;;;2.22;;
48805;SDS011;34625;47.176;27.548;2023-05-07T14:16:55;3.78;;;1.50;;
48805;SDS011;34625;47.176;27.548;2023-05-07T14:19:21;4.05;;;1.70;;
48805;SDS011;34625;47.176;27.548;2023-05-07T14:21:48;10.80;;;3.80;;
48805;SDS011;34625;47.176;27.548;2023-05-07T14:24:14;15.60;;;6.53;;
48805;SDS011;34625;47.176;27.548;2023-05-07T14:26:40;16.63;;;6.53;;
48805;SDS011;34625;47.176;27.548;2023-05-07T14:29:06;9.52;;;5.13;;
48805;SDS011;34625;47.176;27.548;2023-05-07T14:31:32;3.40;;;1.85;;
48805;SDS011;34625;47.176;27.548;2023-05-07T14:33:58;1.08;;;0.70;;
48805;SDS011;34625;47.176;27.548;2023-05-07T14:36:25;1.17;;;1.08;;
48805;SDS011;34625;47.176;27.548;2023-05-07T14:38:55;1.90;;;1.02;;
48805;SDS011;34625;47.176;27.548;2023-05-07T14:41:24;2.10;;;1.13;;
48805;SDS011;34625;47.176;27.548;2023-05-07T14:43:50;0.80;;;0.80;;
48805;SDS011;34625;47.176;27.548;2023-05-07T14:46:19;9.15;;;1.05;;
48805;SDS011;34625;47.176;27.548;2023-05-07T14:48:45;0.63;;;0.63;;
48805;SDS011;34625;47.176;27.548;2023-05-07T14:51:13;0.60;;;0.60;;
48805;SDS011;34625;47.176;27.548;2023-05-07T14:53:40;1.73;;;1.30;;
48805;SDS011;34625;47.176;27.548;2023-05-07T14:56:07;4.45;;;2.20;;
48805;SDS011;34625;47.176;27.548;2023-05-07T14:58:33;4.93;;;3.10;;